Norwood Memorial Airport Norwood US
ICAO: KOWD
IATA: OWD
Category: Medium
Scheduled Services: No

Elevation: 49 ft
TransAlt. 18000 ft.

Airport Communications:
BOSTON APP:124.1
ATIS:119.95
CLNC DEL:121.8
CTAF:126
BOSTON DEP:124.1
GND:121.8
TWR:126

KOWD Zoom In..

Runways:

(A) RW 10 length 3995 ft width 75 ft
LOC 108.30 / hdg 104

(B) RW 17 length 4008 ft width 100 ft
LOC 108.30 / hdg 170

(C) RW 28 length 3995 ft width 75 ft
LOC 108.30 / hdg 284

(D) RW 35 length 4008 ft width 100 ft
LOC 108.30 / hdg 350

Location; KOWD
Day. 19 / Time. 20.53 Zulu
* Altimeter: 29.71
* Temperature: 06° c. 42.8°f.
* Wind from: 250° Speed 04 kn.
Dewpoint: 03° c.
Visibility: 10 Statute Miles.
Clouds: Scattered 1300 ft.
Clouds: Broken 3300 ft.
Clouds: Overcast 8000 ft.

KOWD 192053Z 25004KT 10SM SCT013 BKN033 OVC080 06/03 A2971 RMK AO2 RAB15E46 SLP061 P0000 60001 T00610033 51010


Wind From 250°
Speed 04 kn.

  YouTube Music Video
 
jpsmedia.com for Web Design  worldairports.se 2018   terms of use